sensor_id;sensor_type;location;lat;lon;timestamp;temperature;humidity
58554;DHT22;48119;53.218;6.576;2023-02-15T00:01:29;8.60;99.90
58554;DHT22;48119;53.218;6.576;2023-02-15T00:03:55;8.60;99.90
58554;DHT22;48119;53.218;6.576;2023-02-15T00:06:21;8.60;99.90
58554;DHT22;48119;53.218;6.576;2023-02-15T00:08:58;8.60;99.90
58554;DHT22;48119;53.218;6.576;2023-02-15T00:11:25;8.60;99.90
58554;DHT22;48119;53.218;6.576;2023-02-15T00:14:23;8.60;99.90
58554;DHT22;48119;53.218;6.576;2023-02-15T00:16:52;8.60;99.90
58554;DHT22;48119;53.218;6.576;2023-02-15T00:19:21;8.60;99.90
58554;DHT22;48119;53.218;6.576;2023-02-15T00:21:50;8.60;99.90
58554;DHT22;48119;53.218;6.576;2023-02-15T00:24:24;8.50;99.90
58554;DHT22;48119;53.218;6.576;2023-02-15T00:26:53;8.60;99.90
58554;DHT22;48119;53.218;6.576;2023-02-15T00:29:25;8.60;99.90
58554;DHT22;48119;53.218;6.576;2023-02-15T00:31:54;8.50;99.90
58554;DHT22;48119;53.218;6.576;2023-02-15T00:34:25;8.50;99.90
58554;DHT22;48119;53.218;6.576;2023-02-15T00:36:54;8.50;99.90
58554;DHT22;48119;53.218;6.576;2023-02-15T00:39:20;8.40;99.90
58554;DHT22;48119;53.218;6.576;2023-02-15T00:41:49;8.40;99.90
58554;DHT22;48119;53.218;6.576;2023-02-15T00:44:24;8.40;99.90
58554;DHT22;48119;53.218;6.576;2023-02-15T00:46:53;8.40;99.90
58554;DHT22;48119;53.218;6.576;2023-02-15T00:49:20;8.30;99.90
58554;DHT22;48119;53.218;6.576;2023-02-15T00:51:46;8.30;99.90
58554;DHT22;48119;53.218;6.576;2023-02-15T00:54:17;8.30;99.90
58554;DHT22;48119;53.218;6.576;2023-02-15T00:56:43;8.30;99.90
58554;DHT22;48119;53.218;6.576;2023-02-15T00:59:09;8.20;99.90
58554;DHT22;48119;53.218;6.576;2023-02-15T01:01:37;8.20;99.90
58554;DHT22;48119;53.218;6.576;2023-02-15T01:04:03;8.20;99.90
58554;DHT22;48119;53.218;6.576;2023-02-15T01:06:29;8.20;99.90
58554;DHT22;48119;53.218;6.576;2023-02-15T01:08:55;8.20;99.90
58554;DHT22;48119;53.218;6.576;2023-02-15T01:11:26;8.20;99.90
58554;DHT22;48119;53.218;6.576;2023-02-15T01:13:56;8.20;99.90
58554;DHT22;48119;53.218;6.576;2023-02-15T01:16:27;8.20;99.90
58554;DHT22;48119;53.218;6.576;2023-02-15T01:18:53;8.10;99.90
58554;DHT22;48119;53.218;6.576;2023-02-15T01:21:26;8.20;99.90
58554;DHT22;48119;53.218;6.576;2023-02-15T01:23:52;8.20;99.90
58554;DHT22;48119;53.218;6.576;2023-02-15T01:26:23;8.20;99.90
58554;DHT22;48119;53.218;6.576;2023-02-15T01:28:52;8.20;99.90
58554;DHT22;48119;53.218;6.576;2023-02-15T01:31:26;8.10;99.90
58554;DHT22;48119;53.218;6.576;2023-02-15T01:33:55;8.20;99.90
58554;DHT22;48119;53.218;6.576;2023-02-15T01:36:21;8.10;99.90
58554;DHT22;48119;53.218;6.576;2023-02-15T01:38:53;8.10;99.90
58554;DHT22;48119;53.218;6.576;2023-02-15T01:41:20;8.00;99.90
58554;DHT22;48119;53.218;6.576;2023-02-15T01:44:02;8.00;99.90
58554;DHT22;48119;53.218;6.576;2023-02-15T01:46:40;8.00;99.90
58554;DHT22;48119;53.218;6.576;2023-02-15T01:49:17;8.00;99.90
58554;DHT22;48119;53.218;6.576;2023-02-15T01:51:58;8.00;99.90
58554;DHT22;48119;53.218;6.576;2023-02-15T01:54:31;8.00;99.90
58554;DHT22;48119;53.218;6.576;2023-02-15T01:57:01;7.90;99.90
58554;DHT22;48119;53.218;6.576;2023-02-15T01:59:28;7.90;99.90
58554;DHT22;48119;53.218;6.576;2023-02-15T02:01:58;7.90;99.90
58554;DHT22;48119;53.218;6.576;2023-02-15T02:04:29;7.90;99.90
58554;DHT22;48119;53.218;6.576;2023-02-15T02:06:58;7.90;99.90
58554;DHT22;48119;53.218;6.576;2023-02-15T02:09:25;7.90;99.90
58554;DHT22;48119;53.218;6.576;2023-02-15T02:11:51;7.80;99.90
58554;DHT22;48119;53.218;6.576;2023-02-15T02:14:23;7.80;99.90
58554;DHT22;48119;53.218;6.576;2023-02-15T02:34:10;7.70;99.90
58554;DHT22;48119;53.218;6.576;2023-02-15T02:39:30;7.80;99.90
58554;DHT22;48119;53.218;6.576;2023-02-15T02:47:23;7.90;99.90
58554;DHT22;48119;53.218;6.576;2023-02-15T02:49:58;7.90;99.90
58554;DHT22;48119;53.218;6.576;2023-02-15T02:58:26;8.00;99.90
58554;DHT22;48119;53.218;6.576;2023-02-15T03:01:11;8.00;99.90
58554;DHT22;48119;53.218;6.576;2023-02-15T03:03:49;8.10;99.90
58554;DHT22;48119;53.218;6.576;2023-02-15T03:06:39;8.10;99.90
58554;DHT22;48119;53.218;6.576;2023-02-15T03:12:18;8.00;99.90
58554;DHT22;48119;53.218;6.576;2023-02-15T03:14:48;8.00;99.90
58554;DHT22;48119;53.218;6.576;2023-02-15T03:17:16;7.90;99.90
58554;DHT22;48119;53.218;6.576;2023-02-15T03:19:45;7.90;99.90
58554;DHT22;48119;53.218;6.576;2023-02-15T03:22:18;7.90;99.90
58554;DHT22;48119;53.218;6.576;2023-02-15T03:25:08;7.80;99.90
58554;DHT22;48119;53.218;6.576;2023-02-15T03:27:49;7.80;99.90
58554;DHT22;48119;53.218;6.576;2023-02-15T03:30:22;7.70;99.90
58554;DHT22;48119;53.218;6.576;2023-02-15T03:32:50;7.70;99.90
58554;DHT22;48119;53.218;6.576;2023-02-15T03:35:22;7.60;99.90
58554;DHT22;48119;53.218;6.576;2023-02-15T03:37:59;7.60;99.90
58554;DHT22;48119;53.218;6.576;2023-02-15T03:40:32;7.60;99.90
58554;DHT22;48119;53.218;6.576;2023-02-15T03:46:30;7.60;99.90
58554;DHT22;48119;53.218;6.576;2023-02-15T03:49:06;7.60;99.90
58554;DHT22;48119;53.218;6.576;2023-02-15T03:51:36;7.60;99.90
58554;DHT22;48119;53.218;6.576;2023-02-15T03:57:07;7.60;99.90
58554;DHT22;48119;53.218;6.576;2023-02-15T03:59:56;7.50;99.90
58554;DHT22;48119;53.218;6.576;2023-02-15T04:02:52;7.50;99.90
58554;DHT22;48119;53.218;6.576;2023-02-15T04:05:23;7.50;99.90
58554;DHT22;48119;53.218;6.576;2023-02-15T04:07:51;7.50;99.90
58554;DHT22;48119;53.218;6.576;2023-02-15T04:10:17;7.50;99.90
58554;DHT22;48119;53.218;6.576;2023-02-15T04:13:12;7.50;99.90
58554;DHT22;48119;53.218;6.576;2023-02-15T04:15:38;7.50;99.90
58554;DHT22;48119;53.218;6.576;2023-02-15T04:18:23;7.60;99.90
58554;DHT22;48119;53.218;6.576;2023-02-15T04:21:10;7.50;99.90
58554;DHT22;48119;53.218;6.576;2023-02-15T04:23:55;7.50;99.90
58554;DHT22;48119;53.218;6.576;2023-02-15T04:26:39;7.50;99.90
58554;DHT22;48119;53.218;6.576;2023-02-15T04:29:05;7.40;99.90
58554;DHT22;48119;53.218;6.576;2023-02-15T04:31:33;7.40;99.90
58554;DHT22;48119;53.218;6.576;2023-02-15T04:33:59;7.40;99.90
58554;DHT22;48119;53.218;6.576;2023-02-15T04:36:25;7.50;99.90
58554;DHT22;48119;53.218;6.576;2023-02-15T04:38:51;7.50;99.90
58554;DHT22;48119;53.218;6.576;2023-02-15T04:41:20;7.60;99.90
58554;DHT22;48119;53.218;6.576;2023-02-15T04:43:45;7.50;99.90
58554;DHT22;48119;53.218;6.576;2023-02-15T04:46:11;7.60;99.90
58554;DHT22;48119;53.218;6.576;2023-02-15T04:48:37;7.60;99.90
58554;DHT22;48119;53.218;6.576;2023-02-15T04:51:06;7.60;99.90
58554;DHT22;48119;53.218;6.576;2023-02-15T04:53:35;7.60;99.90
58554;DHT22;48119;53.218;6.576;2023-02-15T04:56:01;7.50;99.90
58554;DHT22;48119;53.218;6.576;2023-02-15T04:58:30;7.50;99.90
58554;DHT22;48119;53.218;6.576;2023-02-15T05:00:56;7.50;99.90
58554;DHT22;48119;53.218;6.576;2023-02-15T05:03:23;7.50;99.90
58554;DHT22;48119;53.218;6.576;2023-02-15T05:05:49;7.50;99.90
58554;DHT22;48119;53.218;6.576;2023-02-15T05:08:15;7.50;99.90
58554;DHT22;48119;53.218;6.576;2023-02-15T05:10:43;7.50;99.90
58554;DHT22;48119;53.218;6.576;2023-02-15T05:13:12;7.50;99.90
58554;DHT22;48119;53.218;6.576;2023-02-15T05:15:40;7.50;99.90
58554;DHT22;48119;53.218;6.576;2023-02-15T05:18:08;7.50;99.90
58554;DHT22;48119;53.218;6.576;2023-02-15T05:20:34;7.50;99.90
58554;DHT22;48119;53.218;6.576;2023-02-15T05:23:00;7.50;99.90
58554;DHT22;48119;53.218;6.576;2023-02-15T05:25:26;7.40;99.90
58554;DHT22;48119;53.218;6.576;2023-02-15T05:28:10;7.40;99.90
58554;DHT22;48119;53.218;6.576;2023-02-15T05:31:10;7.40;99.90
58554;DHT22;48119;53.218;6.576;2023-02-15T05:33:35;7.40;99.90
58554;DHT22;48119;53.218;6.576;2023-02-15T05:36:02;7.40;99.90
58554;DHT22;48119;53.218;6.576;2023-02-15T05:38:31;7.40;99.90
58554;DHT22;48119;53.218;6.576;2023-02-15T05:41:00;7.40;99.90
58554;DHT22;48119;53.218;6.576;2023-02-15T05:43:29;7.50;99.90
58554;DHT22;48119;53.218;6.576;2023-02-15T05:45:54;7.40;99.90
58554;DHT22;48119;53.218;6.576;2023-02-15T05:48:22;7.40;99.90
58554;DHT22;48119;53.218;6.576;2023-02-15T05:51:12;7.50;99.90
58554;DHT22;48119;53.218;6.576;2023-02-15T05:53:42;7.50;99.90
58554;DHT22;48119;53.218;6.576;2023-02-15T05:56:09;7.40;99.90
58554;DHT22;48119;53.218;6.576;2023-02-15T05:58:40;7.50;99.90
58554;DHT22;48119;53.218;6.576;2023-02-15T06:01:17;7.50;99.90
58554;DHT22;48119;53.218;6.576;2023-02-15T06:03:47;7.50;99.90
58554;DHT22;48119;53.218;6.576;2023-02-15T06:06:16;7.50;99.90
58554;DHT22;48119;53.218;6.576;2023-02-15T06:08:50;7.50;99.90
58554;DHT22;48119;53.218;6.576;2023-02-15T06:11:19;7.50;99.90
58554;DHT22;48119;53.218;6.576;2023-02-15T06:13:44;7.50;99.90
58554;DHT22;48119;53.218;6.576;2023-02-15T06:16:13;7.50;99.90
58554;DHT22;48119;53.218;6.576;2023-02-15T06:18:41;7.60;99.90
58554;DHT22;48119;53.218;6.576;2023-02-15T06:21:09;7.60;99.90
58554;DHT22;48119;53.218;6.576;2023-02-15T06:23:35;7.60;99.90
58554;DHT22;48119;53.218;6.576;2023-02-15T06:26:01;7.60;99.90
58554;DHT22;48119;53.218;6.576;2023-02-15T06:28:27;7.60;99.90
58554;DHT22;48119;53.218;6.576;2023-02-15T06:30:54;7.60;99.90
58554;DHT22;48119;53.218;6.576;2023-02-15T06:33:22;7.60;99.90
58554;DHT22;48119;53.218;6.576;2023-02-15T06:35:51;7.60;99.90
58554;DHT22;48119;53.218;6.576;2023-02-15T06:38:17;7.60;99.90
58554;DHT22;48119;53.218;6.576;2023-02-15T06:40:43;7.60;99.90
58554;DHT22;48119;53.218;6.576;2023-02-15T06:43:08;7.60;99.90
58554;DHT22;48119;53.218;6.576;2023-02-15T06:45:34;7.60;99.90
58554;DHT22;48119;53.218;6.576;2023-02-15T06:48:00;7.50;99.90
58554;DHT22;48119;53.218;6.576;2023-02-15T06:50:28;7.50;99.90
58554;DHT22;48119;53.218;6.576;2023-02-15T06:52:57;7.50;99.90
58554;DHT22;48119;53.218;6.576;2023-02-15T06:55:23;7.50;99.90
58554;DHT22;48119;53.218;6.576;2023-02-15T06:57:56;7.50;99.90
58554;DHT22;48119;53.218;6.576;2023-02-15T07:00:30;7.50;99.90
58554;DHT22;48119;53.218;6.576;2023-02-15T07:02:57;7.50;99.90
58554;DHT22;48119;53.218;6.576;2023-02-15T07:05:26;7.50;99.90
58554;DHT22;48119;53.218;6.576;2023-02-15T07:07:59;7.50;99.90
58554;DHT22;48119;53.218;6.576;2023-02-15T07:10:26;7.40;99.90
58554;DHT22;48119;53.218;6.576;2023-02-15T07:12:52;7.40;99.90
58554;DHT22;48119;53.218;6.576;2023-02-15T07:15:19;7.40;99.90
58554;DHT22;48119;53.218;6.576;2023-02-15T07:17:46;7.40;99.90
58554;DHT22;48119;53.218;6.576;2023-02-15T07:20:21;7.40;99.90
58554;DHT22;48119;53.218;6.576;2023-02-15T07:22:48;7.40;99.90
58554;DHT22;48119;53.218;6.576;2023-02-15T07:25:14;7.40;99.90
58554;DHT22;48119;53.218;6.576;2023-02-15T07:27:44;7.40;99.90
58554;DHT22;48119;53.218;6.576;2023-02-15T07:30:12;7.40;99.90
58554;DHT22;48119;53.218;6.576;2023-02-15T07:32:41;7.40;99.90
58554;DHT22;48119;53.218;6.576;2023-02-15T07:35:27;7.40;99.90
58554;DHT22;48119;53.218;6.576;2023-02-15T07:37:52;7.40;99.90
58554;DHT22;48119;53.218;6.576;2023-02-15T07:40:19;7.40;99.90
58554;DHT22;48119;53.218;6.576;2023-02-15T07:42:47;7.40;99.90
58554;DHT22;48119;53.218;6.576;2023-02-15T07:45:20;7.40;99.90
58554;DHT22;48119;53.218;6.576;2023-02-15T07:47:46;7.40;99.90
58554;DHT22;48119;53.218;6.576;2023-02-15T07:50:13;7.40;99.90
58554;DHT22;48119;53.218;6.576;2023-02-15T07:52:39;7.50;99.90
58554;DHT22;48119;53.218;6.576;2023-02-15T07:55:05;7.40;99.90
58554;DHT22;48119;53.218;6.576;2023-02-15T07:57:31;7.40;99.90
58554;DHT22;48119;53.218;6.576;2023-02-15T07:59:57;7.50;99.90
58554;DHT22;48119;53.218;6.576;2023-02-15T08:02:22;7.60;99.90
58554;DHT22;48119;53.218;6.576;2023-02-15T08:04:48;7.60;99.90
58554;DHT22;48119;53.218;6.576;2023-02-15T08:07:16;7.60;99.90
58554;DHT22;48119;53.218;6.576;2023-02-15T08:09:42;7.60;99.90
58554;DHT22;48119;53.218;6.576;2023-02-15T08:12:08;7.60;99.90
58554;DHT22;48119;53.218;6.576;2023-02-15T08:14:34;7.50;99.90
58554;DHT22;48119;53.218;6.576;2023-02-15T08:17:00;7.50;99.90
58554;DHT22;48119;53.218;6.576;2023-02-15T08:19:31;7.50;99.90
58554;DHT22;48119;53.218;6.576;2023-02-15T08:22:01;7.50;99.90
58554;DHT22;48119;53.218;6.576;2023-02-15T08:24:29;7.50;99.90
58554;DHT22;48119;53.218;6.576;2023-02-15T08:26:56;7.50;99.90
58554;DHT22;48119;53.218;6.576;2023-02-15T08:29:25;7.50;99.90
58554;DHT22;48119;53.218;6.576;2023-02-15T08:32:03;7.50;99.90
58554;DHT22;48119;53.218;6.576;2023-02-15T08:34:40;7.60;99.90
58554;DHT22;48119;53.218;6.576;2023-02-15T08:37:06;7.60;99.90
58554;DHT22;48119;53.218;6.576;2023-02-15T08:39:34;7.60;99.90
58554;DHT22;48119;53.218;6.576;2023-02-15T08:42:00;7.60;99.90
58554;DHT22;48119;53.218;6.576;2023-02-15T08:44:26;7.50;99.90
58554;DHT22;48119;53.218;6.576;2023-02-15T08:46:52;7.60;99.90
58554;DHT22;48119;53.218;6.576;2023-02-15T08:49:20;7.60;99.90
58554;DHT22;48119;53.218;6.576;2023-02-15T08:51:46;7.60;99.90
58554;DHT22;48119;53.218;6.576;2023-02-15T08:54:17;7.60;99.90
58554;DHT22;48119;53.218;6.576;2023-02-15T08:56:44;7.60;99.90
58554;DHT22;48119;53.218;6.576;2023-02-15T08:59:19;7.70;99.90
58554;DHT22;48119;53.218;6.576;2023-02-15T09:01:49;7.70;99.90
58554;DHT22;48119;53.218;6.576;2023-02-15T09:04:16;7.70;99.90
58554;DHT22;48119;53.218;6.576;2023-02-15T09:06:43;7.70;99.90
58554;DHT22;48119;53.218;6.576;2023-02-15T09:09:11;7.70;99.90
58554;DHT22;48119;53.218;6.576;2023-02-15T09:11:39;7.70;99.90
58554;DHT22;48119;53.218;6.576;2023-02-15T09:14:12;7.70;99.90
58554;DHT22;48119;53.218;6.576;2023-02-15T09:16:42;7.80;99.90
58554;DHT22;48119;53.218;6.576;2023-02-15T09:19:12;7.80;99.90
58554;DHT22;48119;53.218;6.576;2023-02-15T09:21:38;7.80;99.90
58554;DHT22;48119;53.218;6.576;2023-02-15T09:24:06;7.80;99.90
58554;DHT22;48119;53.218;6.576;2023-02-15T09:26:35;7.80;99.90
58554;DHT22;48119;53.218;6.576;2023-02-15T09:29:01;7.90;99.90
58554;DHT22;48119;53.218;6.576;2023-02-15T09:31:31;7.90;99.90
58554;DHT22;48119;53.218;6.576;2023-02-15T09:33:59;7.90;99.90
58554;DHT22;48119;53.218;6.576;2023-02-15T09:36:29;7.90;99.90
58554;DHT22;48119;53.218;6.576;2023-02-15T09:38:58;8.00;99.90
58554;DHT22;48119;53.218;6.576;2023-02-15T09:41:46;8.00;99.90
58554;DHT22;48119;53.218;6.576;2023-02-15T09:49:42;8.10;99.90
58554;DHT22;48119;53.218;6.576;2023-02-15T10:03:20;8.30;99.90
58554;DHT22;48119;53.218;6.576;2023-02-15T10:11:57;8.40;99.90
58554;DHT22;48119;53.218;6.576;2023-02-15T10:17:03;8.50;99.90
58554;DHT22;48119;53.218;6.576;2023-02-15T10:25:27;8.60;99.90
58554;DHT22;48119;53.218;6.576;2023-02-15T10:28:04;8.70;99.90
58554;DHT22;48119;53.218;6.576;2023-02-15T10:30:47;8.70;99.90
58554;DHT22;48119;53.218;6.576;2023-02-15T10:33:38;8.70;99.90
58554;DHT22;48119;53.218;6.576;2023-02-15T10:36:07;8.80;99.90
58554;DHT22;48119;53.218;6.576;2023-02-15T10:39:24;8.90;99.90
58554;DHT22;48119;53.218;6.576;2023-02-15T10:42:29;8.80;99.90
58554;DHT22;48119;53.218;6.576;2023-02-15T10:45:20;9.00;99.90
58554;DHT22;48119;53.218;6.576;2023-02-15T10:50:57;9.10;99.90
58554;DHT22;48119;53.218;6.576;2023-02-15T10:57:08;9.20;99.90
58554;DHT22;48119;53.218;6.576;2023-02-15T11:02:52;9.30;99.90
58554;DHT22;48119;53.218;6.576;2023-02-15T11:05:41;9.40;99.90
58554;DHT22;48119;53.218;6.576;2023-02-15T11:08:10;9.40;99.90
58554;DHT22;48119;53.218;6.576;2023-02-15T11:10:46;9.50;99.90
58554;DHT22;48119;53.218;6.576;2023-02-15T11:13:16;9.50;99.90
58554;DHT22;48119;53.218;6.576;2023-02-15T11:15:53;9.50;99.90
58554;DHT22;48119;53.218;6.576;2023-02-15T11:21:00;9.70;99.90
58554;DHT22;48119;53.218;6.576;2023-02-15T11:23:27;9.70;99.90
58554;DHT22;48119;53.218;6.576;2023-02-15T11:25:58;9.70;99.90
58554;DHT22;48119;53.218;6.576;2023-02-15T11:28:31;9.80;99.90
58554;DHT22;48119;53.218;6.576;2023-02-15T11:31:02;9.80;99.90
58554;DHT22;48119;53.218;6.576;2023-02-15T11:33:34;9.90;99.90
58554;DHT22;48119;53.218;6.576;2023-02-15T11:36:09;9.90;99.90
58554;DHT22;48119;53.218;6.576;2023-02-15T11:38:37;10.00;99.90
58554;DHT22;48119;53.218;6.576;2023-02-15T11:41:15;10.00;99.90
58554;DHT22;48119;53.218;6.576;2023-02-15T11:44:00;10.10;99.90
58554;DHT22;48119;53.218;6.576;2023-02-15T11:46:28;10.10;99.90
58554;DHT22;48119;53.218;6.576;2023-02-15T11:48:54;10.10;99.90
58554;DHT22;48119;53.218;6.576;2023-02-15T11:51:22;10.20;99.90
58554;DHT22;48119;53.218;6.576;2023-02-15T11:53:49;10.20;99.90
58554;DHT22;48119;53.218;6.576;2023-02-15T11:56:21;10.30;99.90
58554;DHT22;48119;53.218;6.576;2023-02-15T11:58:59;10.30;99.90
58554;DHT22;48119;53.218;6.576;2023-02-15T12:04:24;10.40;99.90
58554;DHT22;48119;53.218;6.576;2023-02-15T12:07:13;10.40;99.90
58554;DHT22;48119;53.218;6.576;2023-02-15T12:09:55;10.50;99.90
58554;DHT22;48119;53.218;6.576;2023-02-15T12:12:33;10.60;99.90
58554;DHT22;48119;53.218;6.576;2023-02-15T12:15:05;10.60;99.90
58554;DHT22;48119;53.218;6.576;2023-02-15T12:17:33;10.70;99.90
58554;DHT22;48119;53.218;6.576;2023-02-15T12:20:02;10.70;99.90
58554;DHT22;48119;53.218;6.576;2023-02-15T12:22:34;10.80;99.90
58554;DHT22;48119;53.218;6.576;2023-02-15T12:25:11;10.90;99.90
58554;DHT22;48119;53.218;6.576;2023-02-15T12:27:45;11.00;99.90
58554;DHT22;48119;53.218;6.576;2023-02-15T12:30:18;11.00;99.90
58554;DHT22;48119;53.218;6.576;2023-02-15T12:35:31;11.10;99.90
58554;DHT22;48119;53.218;6.576;2023-02-15T12:38:02;11.10;99.80
58554;DHT22;48119;53.218;6.576;2023-02-15T12:40:30;11.10;99.80
58554;DHT22;48119;53.218;6.576;2023-02-15T12:42:56;11.10;99.80
58554;DHT22;48119;53.218;6.576;2023-02-15T12:45:27;11.20;99.80
58554;DHT22;48119;53.218;6.576;2023-02-15T12:50:40;11.20;99.80
58554;DHT22;48119;53.218;6.576;2023-02-15T12:53:21;11.20;99.80
58554;DHT22;48119;53.218;6.576;2023-02-15T12:55:58;11.20;99.80
58554;DHT22;48119;53.218;6.576;2023-02-15T12:58:36;11.20;99.80
58554;DHT22;48119;53.218;6.576;2023-02-15T13:03:35;11.20;99.90
58554;DHT22;48119;53.218;6.576;2023-02-15T13:06:04;11.20;99.90
58554;DHT22;48119;53.218;6.576;2023-02-15T13:08:49;11.20;99.90
58554;DHT22;48119;53.218;6.576;2023-02-15T13:11:27;11.20;99.90
58554;DHT22;48119;53.218;6.576;2023-02-15T13:13:59;11.20;99.90
58554;DHT22;48119;53.218;6.576;2023-02-15T13:16:34;11.20;99.90
58554;DHT22;48119;53.218;6.576;2023-02-15T13:21:52;11.20;99.90
58554;DHT22;48119;53.218;6.576;2023-02-15T13:24:28;11.20;99.90
58554;DHT22;48119;53.218;6.576;2023-02-15T13:26:56;11.30;99.90
58554;DHT22;48119;53.218;6.576;2023-02-15T13:29:28;11.20;99.90
58554;DHT22;48119;53.218;6.576;2023-02-15T13:31:57;11.30;99.90
58554;DHT22;48119;53.218;6.576;2023-02-15T13:34:33;11.30;99.80
58554;DHT22;48119;53.218;6.576;2023-02-15T13:40:02;11.30;99.80
58554;DHT22;48119;53.218;6.576;2023-02-15T13:42:54;11.30;99.70
58554;DHT22;48119;53.218;6.576;2023-02-15T13:48:41;11.30;99.60
58554;DHT22;48119;53.218;6.576;2023-02-15T13:56:45;11.30;99.50
58554;DHT22;48119;53.218;6.576;2023-02-15T13:59:48;11.30;99.50
58554;DHT22;48119;53.218;6.576;2023-02-15T14:21:34;11.40;99.20
58554;DHT22;48119;53.218;6.576;2023-02-15T14:27:27;11.40;99.30
58554;DHT22;48119;53.218;6.576;2023-02-15T14:30:20;11.40;99.30
58554;DHT22;48119;53.218;6.576;2023-02-15T14:35:41;11.40;99.20
58554;DHT22;48119;53.218;6.576;2023-02-15T14:49:32;11.40;99.30
58554;DHT22;48119;53.218;6.576;2023-02-15T14:52:09;11.40;99.30
58554;DHT22;48119;53.218;6.576;2023-02-15T15:09:45;11.40;98.90
58554;DHT22;48119;53.218;6.576;2023-02-15T15:14:47;11.50;98.80
58554;DHT22;48119;53.218;6.576;2023-02-15T15:20:13;11.50;98.80
58554;DHT22;48119;53.218;6.576;2023-02-15T15:22:41;11.50;98.90
58554;DHT22;48119;53.218;6.576;2023-02-15T15:27:56;11.50;98.70
58554;DHT22;48119;53.218;6.576;2023-02-15T15:40:30;11.50;98.60
58554;DHT22;48119;53.218;6.576;2023-02-15T15:46:09;11.50;98.50
58554;DHT22;48119;53.218;6.576;2023-02-15T15:48:40;11.40;98.50
58554;DHT22;48119;53.218;6.576;2023-02-15T15:51:21;11.40;98.50
58554;DHT22;48119;53.218;6.576;2023-02-15T15:53:51;11.40;98.50
58554;DHT22;48119;53.218;6.576;2023-02-15T15:56:38;11.40;98.50
58554;DHT22;48119;53.218;6.576;2023-02-15T15:59:15;11.40;98.40
58554;DHT22;48119;53.218;6.576;2023-02-15T16:01:43;11.40;98.40
58554;DHT22;48119;53.218;6.576;2023-02-15T16:06:53;11.40;98.40
58554;DHT22;48119;53.218;6.576;2023-02-15T16:09:24;11.40;98.40
58554;DHT22;48119;53.218;6.576;2023-02-15T16:11:53;11.40;98.40
58554;DHT22;48119;53.218;6.576;2023-02-15T16:14:32;11.40;98.50
58554;DHT22;48119;53.218;6.576;2023-02-15T16:17:04;11.30;98.50
58554;DHT22;48119;53.218;6.576;2023-02-15T16:19:37;11.30;98.60
58554;DHT22;48119;53.218;6.576;2023-02-15T16:22:10;11.30;98.60
58554;DHT22;48119;53.218;6.576;2023-02-15T16:33:05;11.30;98.60
58554;DHT22;48119;53.218;6.576;2023-02-15T16:35:31;11.30;98.70
58554;DHT22;48119;53.218;6.576;2023-02-15T16:37:58;11.20;98.80
58554;DHT22;48119;53.218;6.576;2023-02-15T16:42:52;11.20;98.90
58554;DHT22;48119;53.218;6.576;2023-02-15T16:45:22;11.20;98.90
58554;DHT22;48119;53.218;6.576;2023-02-15T16:47:52;11.20;98.90
58554;DHT22;48119;53.218;6.576;2023-02-15T16:51:20;11.20;99.00
58554;DHT22;48119;53.218;6.576;2023-02-15T16:53:18;11.20;99.00
58554;DHT22;48119;53.218;6.576;2023-02-15T16:55:49;11.20;99.00
58554;DHT22;48119;53.218;6.576;2023-02-15T16:58:16;11.20;99.00
58554;DHT22;48119;53.218;6.576;2023-02-15T17:00:43;11.20;99.00
58554;DHT22;48119;53.218;6.576;2023-02-15T17:05:49;11.10;99.30
58554;DHT22;48119;53.218;6.576;2023-02-15T17:08:25;11.10;98.90
58554;DHT22;48119;53.218;6.576;2023-02-15T17:11:04;11.10;98.90
58554;DHT22;48119;53.218;6.576;2023-02-15T17:13:38;11.10;98.90
58554;DHT22;48119;53.218;6.576;2023-02-15T17:16:24;11.10;99.00
58554;DHT22;48119;53.218;6.576;2023-02-15T17:18:53;11.10;98.90
58554;DHT22;48119;53.218;6.576;2023-02-15T17:21:30;11.10;99.00
58554;DHT22;48119;53.218;6.576;2023-02-15T17:24:00;11.10;99.00
58554;DHT22;48119;53.218;6.576;2023-02-15T17:26:37;11.10;99.00
58554;DHT22;48119;53.218;6.576;2023-02-15T17:31:55;11.10;98.70
58554;DHT22;48119;53.218;6.576;2023-02-15T17:40:14;10.90;98.90
58554;DHT22;48119;53.218;6.576;2023-02-15T17:42:43;11.00;99.00
58554;DHT22;48119;53.218;6.576;2023-02-15T17:45:12;11.00;99.00
58554;DHT22;48119;53.218;6.576;2023-02-15T17:47:41;11.00;98.90
58554;DHT22;48119;53.218;6.576;2023-02-15T17:50:10;11.00;98.90
58554;DHT22;48119;53.218;6.576;2023-02-15T17:52:41;11.00;98.90
58554;DHT22;48119;53.218;6.576;2023-02-15T17:55:30;11.00;98.90
58554;DHT22;48119;53.218;6.576;2023-02-15T17:58:15;11.00;98.80
58554;DHT22;48119;53.218;6.576;2023-02-15T18:00:49;11.00;98.90
58554;DHT22;48119;53.218;6.576;2023-02-15T18:03:57;11.00;98.90
58554;DHT22;48119;53.218;6.576;2023-02-15T18:06:44;11.00;98.80
58554;DHT22;48119;53.218;6.576;2023-02-15T18:09:31;10.90;98.90
58554;DHT22;48119;53.218;6.576;2023-02-15T18:12:22;11.00;99.00
58554;DHT22;48119;53.218;6.576;2023-02-15T18:14:52;10.90;98.90
58554;DHT22;48119;53.218;6.576;2023-02-15T18:17:31;10.90;99.00
58554;DHT22;48119;53.218;6.576;2023-02-15T18:19:58;10.90;98.90
58554;DHT22;48119;53.218;6.576;2023-02-15T18:22:27;10.90;99.00
58554;DHT22;48119;53.218;6.576;2023-02-15T18:24:54;10.90;99.00
58554;DHT22;48119;53.218;6.576;2023-02-15T18:27:19;10.90;99.00
58554;DHT22;48119;53.218;6.576;2023-02-15T18:29:51;10.90;99.00
58554;DHT22;48119;53.218;6.576;2023-02-15T18:32:26;10.90;99.00
58554;DHT22;48119;53.218;6.576;2023-02-15T18:34:55;10.90;99.00
58554;DHT22;48119;53.218;6.576;2023-02-15T18:37:22;10.90;99.00
58554;DHT22;48119;53.218;6.576;2023-02-15T18:39:52;10.80;99.00
58554;DHT22;48119;53.218;6.576;2023-02-15T18:42:27;10.80;99.00
58554;DHT22;48119;53.218;6.576;2023-02-15T18:44:57;10.90;99.00
58554;DHT22;48119;53.218;6.576;2023-02-15T18:47:26;10.80;99.00
58554;DHT22;48119;53.218;6.576;2023-02-15T18:49:52;10.80;99.00
58554;DHT22;48119;53.218;6.576;2023-02-15T18:52:33;10.80;99.10
58554;DHT22;48119;53.218;6.576;2023-02-15T18:55:03;10.80;99.10
58554;DHT22;48119;53.218;6.576;2023-02-15T18:57:32;10.70;99.10
58554;DHT22;48119;53.218;6.576;2023-02-15T19:00:05;10.70;99.10
58554;DHT22;48119;53.218;6.576;2023-02-15T19:02:41;10.70;99.10
58554;DHT22;48119;53.218;6.576;2023-02-15T19:05:11;10.70;99.10
58554;DHT22;48119;53.218;6.576;2023-02-15T19:07:37;10.70;99.20
58554;DHT22;48119;53.218;6.576;2023-02-15T19:10:06;10.70;99.20
58554;DHT22;48119;53.218;6.576;2023-02-15T19:12:33;10.80;99.30
58554;DHT22;48119;53.218;6.576;2023-02-15T19:14:59;10.70;99.20
58554;DHT22;48119;53.218;6.576;2023-02-15T19:17:28;10.70;99.20
58554;DHT22;48119;53.218;6.576;2023-02-15T19:19:54;10.70;99.20
58554;DHT22;48119;53.218;6.576;2023-02-15T19:22:28;10.70;99.20
58554;DHT22;48119;53.218;6.576;2023-02-15T19:24:57;10.70;99.20
58554;DHT22;48119;53.218;6.576;2023-02-15T19:27:27;10.70;99.20
58554;DHT22;48119;53.218;6.576;2023-02-15T19:29:58;10.70;99.20
58554;DHT22;48119;53.218;6.576;2023-02-15T19:32:27;10.70;99.20
58554;DHT22;48119;53.218;6.576;2023-02-15T19:34:55;10.70;99.20
58554;DHT22;48119;53.218;6.576;2023-02-15T19:37:38;10.60;99.10